sensor_id;sensor_type;location;lat;lon;timestamp;temperature;humidity
35463;DHT22;21578;47.892;9.970;2022-08-20T00:04:18;16.30;96.60
35463;DHT22;21578;47.892;9.970;2022-08-20T00:09:05;16.30;96.60
35463;DHT22;21578;47.892;9.970;2022-08-20T00:13:56;16.30;96.60
35463;DHT22;21578;47.892;9.970;2022-08-20T00:18:44;16.30;96.60
35463;DHT22;21578;47.892;9.970;2022-08-20T00:23:33;16.30;96.60
35463;DHT22;21578;47.892;9.970;2022-08-20T00:28:21;16.30;96.60
35463;DHT22;21578;47.892;9.970;2022-08-20T00:33:11;16.30;96.60
35463;DHT22;21578;47.892;9.970;2022-08-20T00:37:58;16.20;96.60
35463;DHT22;21578;47.892;9.970;2022-08-20T00:42:50;16.20;96.60
35463;DHT22;21578;47.892;9.970;2022-08-20T00:47:37;16.20;96.60
35463;DHT22;21578;47.892;9.970;2022-08-20T00:52:26;16.20;96.60
35463;DHT22;21578;47.892;9.970;2022-08-20T00:57:20;16.20;96.60
35463;DHT22;21578;47.892;9.970;2022-08-20T01:02:12;16.10;96.60
35463;DHT22;21578;47.892;9.970;2022-08-20T01:06:59;16.20;96.60
35463;DHT22;21578;47.892;9.970;2022-08-20T01:11:46;16.20;96.60
35463;DHT22;21578;47.892;9.970;2022-08-20T01:16:34;16.20;96.60
35463;DHT22;21578;47.892;9.970;2022-08-20T01:21:23;16.20;96.60
35463;DHT22;21578;47.892;9.970;2022-08-20T01:26:16;16.10;96.60
35463;DHT22;21578;47.892;9.970;2022-08-20T01:31:05;16.20;96.60
35463;DHT22;21578;47.892;9.970;2022-08-20T01:35:53;16.10;96.60
35463;DHT22;21578;47.892;9.970;2022-08-20T01:40:56;16.10;96.60
35463;DHT22;21578;47.892;9.970;2022-08-20T01:45:51;16.20;96.60
35463;DHT22;21578;47.892;9.970;2022-08-20T01:50:41;16.10;96.60
35463;DHT22;21578;47.892;9.970;2022-08-20T01:55:29;16.10;96.60
35463;DHT22;21578;47.892;9.970;2022-08-20T02:00:18;16.10;96.60
35463;DHT22;21578;47.892;9.970;2022-08-20T02:05:07;16.20;96.60
35463;DHT22;21578;47.892;9.970;2022-08-20T02:09:55;16.20;96.60
35463;DHT22;21578;47.892;9.970;2022-08-20T02:14:45;16.20;96.60
35463;DHT22;21578;47.892;9.970;2022-08-20T02:19:37;16.10;96.60
35463;DHT22;21578;47.892;9.970;2022-08-20T02:24:26;16.20;96.60
35463;DHT22;21578;47.892;9.970;2022-08-20T02:29:13;16.10;96.60
35463;DHT22;21578;47.892;9.970;2022-08-20T02:34:00;16.10;96.60
35463;DHT22;21578;47.892;9.970;2022-08-20T02:38:47;16.10;96.60
35463;DHT22;21578;47.892;9.970;2022-08-20T02:43:36;16.10;96.60
35463;DHT22;21578;47.892;9.970;2022-08-20T02:48:23;16.10;96.60
35463;DHT22;21578;47.892;9.970;2022-08-20T02:53:10;16.00;96.60
35463;DHT22;21578;47.892;9.970;2022-08-20T02:57:58;16.10;96.60
35463;DHT22;21578;47.892;9.970;2022-08-20T03:02:47;16.10;96.60
35463;DHT22;21578;47.892;9.970;2022-08-20T03:07:40;16.00;96.60
35463;DHT22;21578;47.892;9.970;2022-08-20T03:12:27;16.00;96.60
35463;DHT22;21578;47.892;9.970;2022-08-20T03:17:14;16.00;96.60
35463;DHT22;21578;47.892;9.970;2022-08-20T03:22:02;16.10;96.60
35463;DHT22;21578;47.892;9.970;2022-08-20T03:26:49;16.00;96.60
35463;DHT22;21578;47.892;9.970;2022-08-20T03:31:36;16.10;96.60
35463;DHT22;21578;47.892;9.970;2022-08-20T03:36:26;16.00;96.60
35463;DHT22;21578;47.892;9.970;2022-08-20T03:41:14;16.00;96.60
35463;DHT22;21578;47.892;9.970;2022-08-20T03:46:02;15.90;96.60
35463;DHT22;21578;47.892;9.970;2022-08-20T03:50:49;15.90;96.60
35463;DHT22;21578;47.892;9.970;2022-08-20T03:55:37;16.00;96.60
35463;DHT22;21578;47.892;9.970;2022-08-20T04:00:28;16.00;96.60
35463;DHT22;21578;47.892;9.970;2022-08-20T04:05:15;15.90;96.60
35463;DHT22;21578;47.892;9.970;2022-08-20T04:10:05;15.90;96.60
35463;DHT22;21578;47.892;9.970;2022-08-20T04:14:52;15.90;96.60
35463;DHT22;21578;47.892;9.970;2022-08-20T04:19:41;15.90;96.60
35463;DHT22;21578;47.892;9.970;2022-08-20T04:24:28;15.90;96.60
35463;DHT22;21578;47.892;9.970;2022-08-20T04:29:15;15.90;96.60
35463;DHT22;21578;47.892;9.970;2022-08-20T04:34:03;15.90;96.60
35463;DHT22;21578;47.892;9.970;2022-08-20T04:38:53;16.00;96.60
35463;DHT22;21578;47.892;9.970;2022-08-20T04:43:40;15.90;96.60
35463;DHT22;21578;47.892;9.970;2022-08-20T04:48:28;15.90;96.60
35463;DHT22;21578;47.892;9.970;2022-08-20T04:53:16;16.00;96.60
35463;DHT22;21578;47.892;9.970;2022-08-20T04:58:07;16.20;96.60
35463;DHT22;21578;47.892;9.970;2022-08-20T05:02:54;16.00;96.60
35463;DHT22;21578;47.892;9.970;2022-08-20T05:07:43;16.00;96.60
35463;DHT22;21578;47.892;9.970;2022-08-20T05:12:31;16.00;96.60
35463;DHT22;21578;47.892;9.970;2022-08-20T05:17:19;16.10;96.60
35463;DHT22;21578;47.892;9.970;2022-08-20T05:22:08;16.00;96.60
35463;DHT22;21578;47.892;9.970;2022-08-20T05:26:55;16.00;96.60
35463;DHT22;21578;47.892;9.970;2022-08-20T05:31:42;16.00;96.60
35463;DHT22;21578;47.892;9.970;2022-08-20T05:36:30;16.00;96.60
35463;DHT22;21578;47.892;9.970;2022-08-20T05:41:17;16.00;96.60
35463;DHT22;21578;47.892;9.970;2022-08-20T05:46:05;16.00;96.60
35463;DHT22;21578;47.892;9.970;2022-08-20T05:50:53;16.00;96.60
35463;DHT22;21578;47.892;9.970;2022-08-20T05:55:42;16.00;96.60
35463;DHT22;21578;47.892;9.970;2022-08-20T06:00:30;16.00;96.60
35463;DHT22;21578;47.892;9.970;2022-08-20T06:05:17;16.00;96.60
35463;DHT22;21578;47.892;9.970;2022-08-20T06:10:06;15.90;96.60
35463;DHT22;21578;47.892;9.970;2022-08-20T06:14:54;16.00;96.60
35463;DHT22;21578;47.892;9.970;2022-08-20T06:19:43;16.00;96.60
35463;DHT22;21578;47.892;9.970;2022-08-20T06:24:30;16.00;96.60
35463;DHT22;21578;47.892;9.970;2022-08-20T06:29:17;16.00;96.60
35463;DHT22;21578;47.892;9.970;2022-08-20T06:34:06;16.10;96.60
35463;DHT22;21578;47.892;9.970;2022-08-20T06:38:53;16.20;96.60
35463;DHT22;21578;47.892;9.970;2022-08-20T06:43:42;16.30;96.60
35463;DHT22;21578;47.892;9.970;2022-08-20T06:48:29;16.30;96.60
35463;DHT22;21578;47.892;9.970;2022-08-20T06:53:19;16.50;96.60
35463;DHT22;21578;47.892;9.970;2022-08-20T06:58:08;16.70;96.60
35463;DHT22;21578;47.892;9.970;2022-08-20T07:02:55;16.80;96.60
35463;DHT22;21578;47.892;9.970;2022-08-20T07:07:45;16.90;96.60
35463;DHT22;21578;47.892;9.970;2022-08-20T07:12:35;17.00;96.60
35463;DHT22;21578;47.892;9.970;2022-08-20T07:17:22;17.10;96.60
35463;DHT22;21578;47.892;9.970;2022-08-20T07:22:09;17.20;96.60
35463;DHT22;21578;47.892;9.970;2022-08-20T07:26:59;17.30;96.60
35463;DHT22;21578;47.892;9.970;2022-08-20T07:31:47;17.40;96.60
35463;DHT22;21578;47.892;9.970;2022-08-20T07:36:51;17.60;96.60
35463;DHT22;21578;47.892;9.970;2022-08-20T07:41:38;17.60;96.60
35463;DHT22;21578;47.892;9.970;2022-08-20T07:46:25;17.80;96.60
35463;DHT22;21578;47.892;9.970;2022-08-20T07:51:14;17.90;96.60
35463;DHT22;21578;47.892;9.970;2022-08-20T07:56:06;18.10;96.60
35463;DHT22;21578;47.892;9.970;2022-08-20T08:00:54;18.30;96.60
35463;DHT22;21578;47.892;9.970;2022-08-20T08:05:44;18.40;96.60
35463;DHT22;21578;47.892;9.970;2022-08-20T08:10:33;18.40;96.60
35463;DHT22;21578;47.892;9.970;2022-08-20T08:15:24;18.30;96.60
35463;DHT22;21578;47.892;9.970;2022-08-20T08:20:12;18.40;96.60
35463;DHT22;21578;47.892;9.970;2022-08-20T08:25:00;18.50;96.60
35463;DHT22;21578;47.892;9.970;2022-08-20T08:29:48;18.60;96.60
35463;DHT22;21578;47.892;9.970;2022-08-20T08:34:36;18.60;96.60
35463;DHT22;21578;47.892;9.970;2022-08-20T08:39:23;18.70;96.60
35463;DHT22;21578;47.892;9.970;2022-08-20T08:44:13;18.90;96.60
35463;DHT22;21578;47.892;9.970;2022-08-20T08:49:10;19.00;96.60
35463;DHT22;21578;47.892;9.970;2022-08-20T08:53:58;19.20;96.60
35463;DHT22;21578;47.892;9.970;2022-08-20T08:58:45;19.50;96.60
35463;DHT22;21578;47.892;9.970;2022-08-20T09:03:35;19.40;96.60
35463;DHT22;21578;47.892;9.970;2022-08-20T09:08:30;19.50;96.60
35463;DHT22;21578;47.892;9.970;2022-08-20T09:13:18;19.60;96.60
35463;DHT22;21578;47.892;9.970;2022-08-20T09:18:05;19.90;96.60
35463;DHT22;21578;47.892;9.970;2022-08-20T09:22:52;19.90;96.60
35463;DHT22;21578;47.892;9.970;2022-08-20T09:27:40;20.00;96.60
35463;DHT22;21578;47.892;9.970;2022-08-20T09:32:27;20.20;96.60
35463;DHT22;21578;47.892;9.970;2022-08-20T09:37:14;20.20;96.60
35463;DHT22;21578;47.892;9.970;2022-08-20T09:42:12;20.30;96.60
35463;DHT22;21578;47.892;9.970;2022-08-20T09:47:00;20.40;96.60
35463;DHT22;21578;47.892;9.970;2022-08-20T09:51:47;20.70;96.60
35463;DHT22;21578;47.892;9.970;2022-08-20T09:56:34;20.70;96.60
35463;DHT22;21578;47.892;9.970;2022-08-20T10:01:21;21.00;95.20
35463;DHT22;21578;47.892;9.970;2022-08-20T10:06:10;21.00;96.50
35463;DHT22;21578;47.892;9.970;2022-08-20T10:10:59;21.40;95.20
35463;DHT22;21578;47.892;9.970;2022-08-20T10:15:46;21.30;94.50
35463;DHT22;21578;47.892;9.970;2022-08-20T10:20:33;21.30;93.70
35463;DHT22;21578;47.892;9.970;2022-08-20T10:25:22;21.30;94.40
35463;DHT22;21578;47.892;9.970;2022-08-20T10:30:10;21.30;95.00
35463;DHT22;21578;47.892;9.970;2022-08-20T10:34:57;21.30;94.30
35463;DHT22;21578;47.892;9.970;2022-08-20T10:39:45;20.90;94.30
35463;DHT22;21578;47.892;9.970;2022-08-20T10:44:33;20.40;96.60
35463;DHT22;21578;47.892;9.970;2022-08-20T10:49:20;20.10;96.60
35463;DHT22;21578;47.892;9.970;2022-08-20T10:54:07;19.90;96.60
35463;DHT22;21578;47.892;9.970;2022-08-20T10:58:54;19.90;96.60
35463;DHT22;21578;47.892;9.970;2022-08-20T11:03:42;20.00;96.60
35463;DHT22;21578;47.892;9.970;2022-08-20T11:08:29;20.20;96.60
35463;DHT22;21578;47.892;9.970;2022-08-20T11:13:16;20.40;96.60
35463;DHT22;21578;47.892;9.970;2022-08-20T11:18:04;20.70;96.60
35463;DHT22;21578;47.892;9.970;2022-08-20T11:22:53;20.90;96.60
35463;DHT22;21578;47.892;9.970;2022-08-20T11:27:42;21.10;96.50
35463;DHT22;21578;47.892;9.970;2022-08-20T11:32:30;21.10;94.80
35463;DHT22;21578;47.892;9.970;2022-08-20T11:37:19;21.20;96.50
35463;DHT22;21578;47.892;9.970;2022-08-20T11:42:08;21.10;93.90
35463;DHT22;21578;47.892;9.970;2022-08-20T11:46:55;21.10;95.50
35463;DHT22;21578;47.892;9.970;2022-08-20T11:51:47;21.00;95.40
35463;DHT22;21578;47.892;9.970;2022-08-20T11:56:34;20.90;95.80
35463;DHT22;21578;47.892;9.970;2022-08-20T12:01:22;20.70;96.60
35463;DHT22;21578;47.892;9.970;2022-08-20T12:06:09;20.50;96.60
35463;DHT22;21578;47.892;9.970;2022-08-20T12:10:57;20.50;96.60
35463;DHT22;21578;47.892;9.970;2022-08-20T12:15:45;20.60;96.60
35463;DHT22;21578;47.892;9.970;2022-08-20T12:20:36;20.80;96.60
35463;DHT22;21578;47.892;9.970;2022-08-20T12:25:24;21.20;96.60
35463;DHT22;21578;47.892;9.970;2022-08-20T12:30:14;21.70;96.30
35463;DHT22;21578;47.892;9.970;2022-08-20T12:35:02;21.40;93.70
35463;DHT22;21578;47.892;9.970;2022-08-20T12:39:52;20.90;96.60
35463;DHT22;21578;47.892;9.970;2022-08-20T12:44:39;20.60;96.50
35463;DHT22;21578;47.892;9.970;2022-08-20T12:49:26;20.40;95.50
35463;DHT22;21578;47.892;9.970;2022-08-20T12:54:13;20.40;95.60
35463;DHT22;21578;47.892;9.970;2022-08-20T12:59:01;20.40;95.80
35463;DHT22;21578;47.892;9.970;2022-08-20T13:03:48;20.40;96.60
35463;DHT22;21578;47.892;9.970;2022-08-20T13:08:35;20.40;96.60
35463;DHT22;21578;47.892;9.970;2022-08-20T13:13:22;20.30;96.60
35463;DHT22;21578;47.892;9.970;2022-08-20T13:18:10;19.50;96.60
35463;DHT22;21578;47.892;9.970;2022-08-20T13:22:57;18.60;96.60
35463;DHT22;21578;47.892;9.970;2022-08-20T13:27:44;18.30;96.60
35463;DHT22;21578;47.892;9.970;2022-08-20T13:32:32;18.20;96.60
35463;DHT22;21578;47.892;9.970;2022-08-20T13:37:23;18.10;96.60
35463;DHT22;21578;47.892;9.970;2022-08-20T13:42:11;17.90;96.60
35463;DHT22;21578;47.892;9.970;2022-08-20T13:46:58;17.90;96.60
35463;DHT22;21578;47.892;9.970;2022-08-20T13:51:45;18.10;96.60
35463;DHT22;21578;47.892;9.970;2022-08-20T13:56:33;18.50;96.60
35463;DHT22;21578;47.892;9.970;2022-08-20T14:01:20;19.00;96.60
35463;DHT22;21578;47.892;9.970;2022-08-20T14:06:07;19.50;96.60
35463;DHT22;21578;47.892;9.970;2022-08-20T14:10:54;19.80;96.60
35463;DHT22;21578;47.892;9.970;2022-08-20T14:15:43;19.90;96.60
35463;DHT22;21578;47.892;9.970;2022-08-20T14:20:31;20.00;96.60
35463;DHT22;21578;47.892;9.970;2022-08-20T14:25:20;19.90;96.60
35463;DHT22;21578;47.892;9.970;2022-08-20T14:30:10;19.80;96.60
35463;DHT22;21578;47.892;9.970;2022-08-20T14:34:58;19.60;96.60
35463;DHT22;21578;47.892;9.970;2022-08-20T14:39:49;19.70;96.60
35463;DHT22;21578;47.892;9.970;2022-08-20T14:44:36;19.80;96.60
35463;DHT22;21578;47.892;9.970;2022-08-20T14:49:23;19.80;96.60
35463;DHT22;21578;47.892;9.970;2022-08-20T14:54:11;19.70;96.60
35463;DHT22;21578;47.892;9.970;2022-08-20T14:58:58;19.40;96.60
35463;DHT22;21578;47.892;9.970;2022-08-20T15:03:45;18.90;96.60
35463;DHT22;21578;47.892;9.970;2022-08-20T15:08:32;18.60;96.60
35463;DHT22;21578;47.892;9.970;2022-08-20T15:13:20;18.40;96.60
35463;DHT22;21578;47.892;9.970;2022-08-20T15:18:07;18.20;96.60
35463;DHT22;21578;47.892;9.970;2022-08-20T15:22:54;18.40;96.60
35463;DHT22;21578;47.892;9.970;2022-08-20T15:27:41;18.40;96.60
35463;DHT22;21578;47.892;9.970;2022-08-20T15:32:30;18.50;96.60
35463;DHT22;21578;47.892;9.970;2022-08-20T15:37:19;18.50;96.60
35463;DHT22;21578;47.892;9.970;2022-08-20T15:42:07;18.50;96.60
35463;DHT22;21578;47.892;9.970;2022-08-20T15:46:54;18.60;96.60
35463;DHT22;21578;47.892;9.970;2022-08-20T15:51:45;18.60;96.60
35463;DHT22;21578;47.892;9.970;2022-08-20T15:56:51;18.60;96.60
35463;DHT22;21578;47.892;9.970;2022-08-20T16:01:48;18.60;96.60
35463;DHT22;21578;47.892;9.970;2022-08-20T16:06:41;18.70;96.60
35463;DHT22;21578;47.892;9.970;2022-08-20T16:11:39;18.70;96.60
35463;DHT22;21578;47.892;9.970;2022-08-20T16:16:32;18.80;96.60
35463;DHT22;21578;47.892;9.970;2022-08-20T16:21:27;18.80;96.60
35463;DHT22;21578;47.892;9.970;2022-08-20T16:26:28;18.80;96.60
35463;DHT22;21578;47.892;9.970;2022-08-20T16:31:22;19.00;96.60
35463;DHT22;21578;47.892;9.970;2022-08-20T16:36:14;19.10;96.60
35463;DHT22;21578;47.892;9.970;2022-08-20T16:41:11;19.20;96.60
35463;DHT22;21578;47.892;9.970;2022-08-20T16:46:02;19.50;96.60
35463;DHT22;21578;47.892;9.970;2022-08-20T16:50:56;19.70;96.60
35463;DHT22;21578;47.892;9.970;2022-08-20T16:55:44;19.70;96.60
35463;DHT22;21578;47.892;9.970;2022-08-20T17:00:32;19.60;96.60
35463;DHT22;21578;47.892;9.970;2022-08-20T17:05:23;19.50;96.60
35463;DHT22;21578;47.892;9.970;2022-08-20T17:10:15;19.40;96.60
35463;DHT22;21578;47.892;9.970;2022-08-20T17:15:02;19.40;96.60
35463;DHT22;21578;47.892;9.970;2022-08-20T17:19:52;19.30;96.60
35463;DHT22;21578;47.892;9.970;2022-08-20T17:24:41;19.20;96.60
35463;DHT22;21578;47.892;9.970;2022-08-20T17:29:29;19.10;96.60
35463;DHT22;21578;47.892;9.970;2022-08-20T17:34:20;19.10;96.60
35463;DHT22;21578;47.892;9.970;2022-08-20T17:39:14;19.20;96.60
35463;DHT22;21578;47.892;9.970;2022-08-20T17:44:07;19.40;96.60
35463;DHT22;21578;47.892;9.970;2022-08-20T17:48:56;19.50;96.60
35463;DHT22;21578;47.892;9.970;2022-08-20T17:53:50;19.50;96.60
35463;DHT22;21578;47.892;9.970;2022-08-20T17:58:42;19.50;96.60
35463;DHT22;21578;47.892;9.970;2022-08-20T18:03:32;19.40;96.60
35463;DHT22;21578;47.892;9.970;2022-08-20T18:08:28;19.30;96.60
35463;DHT22;21578;47.892;9.970;2022-08-20T18:13:18;19.10;96.60
35463;DHT22;21578;47.892;9.970;2022-08-20T18:18:15;19.00;96.60
35463;DHT22;21578;47.892;9.970;2022-08-20T18:23:09;18.80;96.60
35463;DHT22;21578;47.892;9.970;2022-08-20T18:28:03;18.70;96.60
35463;DHT22;21578;47.892;9.970;2022-08-20T18:33:00;18.50;96.60
35463;DHT22;21578;47.892;9.970;2022-08-20T18:37:48;18.40;96.60
35463;DHT22;21578;47.892;9.970;2022-08-20T18:42:38;18.30;96.60
35463;DHT22;21578;47.892;9.970;2022-08-20T18:47:27;18.30;96.60
35463;DHT22;21578;47.892;9.970;2022-08-20T18:52:22;18.30;96.60
35463;DHT22;21578;47.892;9.970;2022-08-20T18:57:19;18.10;96.60
35463;DHT22;21578;47.892;9.970;2022-08-20T19:02:17;17.90;96.60
35463;DHT22;21578;47.892;9.970;2022-08-20T19:07:09;17.80;96.60
35463;DHT22;21578;47.892;9.970;2022-08-20T19:12:19;17.70;96.60
35463;DHT22;21578;47.892;9.970;2022-08-20T19:17:13;17.70;96.60
35463;DHT22;21578;47.892;9.970;2022-08-20T19:22:04;17.60;96.60
35463;DHT22;21578;47.892;9.970;2022-08-20T19:26:53;17.60;96.60
35463;DHT22;21578;47.892;9.970;2022-08-20T19:31:41;17.50;96.60
35463;DHT22;21578;47.892;9.970;2022-08-20T19:36:29;17.50;96.60
35463;DHT22;21578;47.892;9.970;2022-08-20T19:41:21;17.40;96.60
35463;DHT22;21578;47.892;9.970;2022-08-20T19:46:09;17.50;96.60
35463;DHT22;21578;47.892;9.970;2022-08-20T19:51:04;17.40;96.60
35463;DHT22;21578;47.892;9.970;2022-08-20T19:56:00;17.30;96.60
35463;DHT22;21578;47.892;9.970;2022-08-20T20:00:50;17.30;96.60
35463;DHT22;21578;47.892;9.970;2022-08-20T20:05:46;17.30;96.60
35463;DHT22;21578;47.892;9.970;2022-08-20T20:10:35;17.10;96.60
35463;DHT22;21578;47.892;9.970;2022-08-20T20:15:22;17.10;96.60
35463;DHT22;21578;47.892;9.970;2022-08-20T20:20:24;17.10;96.60
35463;DHT22;21578;47.892;9.970;2022-08-20T20:25:19;17.10;96.60
35463;DHT22;21578;47.892;9.970;2022-08-20T20:30:09;17.00;96.60
35463;DHT22;21578;47.892;9.970;2022-08-20T20:34:58;17.00;96.60
35463;DHT22;21578;47.892;9.970;2022-08-20T20:39:58;17.00;96.60
35463;DHT22;21578;47.892;9.970;2022-08-20T20:44:45;17.00;96.60
35463;DHT22;21578;47.892;9.970;2022-08-20T20:49:45;17.00;96.60
35463;DHT22;21578;47.892;9.970;2022-08-20T20:54:37;16.90;96.60
35463;DHT22;21578;47.892;9.970;2022-08-20T20:59:28;16.90;96.60
35463;DHT22;21578;47.892;9.970;2022-08-20T21:04:17;16.80;96.60
35463;DHT22;21578;47.892;9.970;2022-08-20T21:09:04;16.80;96.60
35463;DHT22;21578;47.892;9.970;2022-08-20T21:13:51;16.80;96.60
35463;DHT22;21578;47.892;9.970;2022-08-20T21:18:40;16.80;96.60
35463;DHT22;21578;47.892;9.970;2022-08-20T21:23:26;17.00;96.60
35463;DHT22;21578;47.892;9.970;2022-08-20T21:28:13;17.00;96.60
35463;DHT22;21578;47.892;9.970;2022-08-20T21:33:00;16.90;96.60
35463;DHT22;21578;47.892;9.970;2022-08-20T21:37:49;16.80;96.60
35463;DHT22;21578;47.892;9.970;2022-08-20T21:42:37;16.70;96.60
35463;DHT22;21578;47.892;9.970;2022-08-20T21:47:24;16.70;96.60
35463;DHT22;21578;47.892;9.970;2022-08-20T21:52:11;16.70;96.60
35463;DHT22;21578;47.892;9.970;2022-08-20T21:57:03;16.60;96.60
35463;DHT22;21578;47.892;9.970;2022-08-20T22:01:52;16.50;96.60
35463;DHT22;21578;47.892;9.970;2022-08-20T22:06:39;16.50;96.60
35463;DHT22;21578;47.892;9.970;2022-08-20T22:11:26;16.40;96.60
35463;DHT22;21578;47.892;9.970;2022-08-20T22:16:17;16.40;96.60
35463;DHT22;21578;47.892;9.970;2022-08-20T22:21:07;16.30;96.60
35463;DHT22;21578;47.892;9.970;2022-08-20T22:25:55;16.20;96.60
35463;DHT22;21578;47.892;9.970;2022-08-20T22:30:42;16.20;96.60
35463;DHT22;21578;47.892;9.970;2022-08-20T22:35:31;16.10;96.60
35463;DHT22;21578;47.892;9.970;2022-08-20T22:40:18;16.00;96.60
35463;DHT22;21578;47.892;9.970;2022-08-20T22:45:06;16.00;96.60
35463;DHT22;21578;47.892;9.970;2022-08-20T22:49:54;16.00;96.60
35463;DHT22;21578;47.892;9.970;2022-08-20T22:54:43;16.10;96.60
35463;DHT22;21578;47.892;9.970;2022-08-20T22:59:31;16.00;96.60
35463;DHT22;21578;47.892;9.970;2022-08-20T23:04:22;16.00;96.60
35463;DHT22;21578;47.892;9.970;2022-08-20T23:09:09;15.90;96.60
35463;DHT22;21578;47.892;9.970;2022-08-20T23:13:58;15.80;96.60
35463;DHT22;21578;47.892;9.970;2022-08-20T23:18:44;15.80;96.60
35463;DHT22;21578;47.892;9.970;2022-08-20T23:23:31;15.70;96.60
35463;DHT22;21578;47.892;9.970;2022-08-20T23:28:21;15.70;96.60
35463;DHT22;21578;47.892;9.970;2022-08-20T23:33:09;15.60;96.60
35463;DHT22;21578;47.892;9.970;2022-08-20T23:37:57;15.60;96.60
35463;DHT22;21578;47.892;9.970;2022-08-20T23:42:44;15.50;96.60
35463;DHT22;21578;47.892;9.970;2022-08-20T23:47:32;15.60;96.60
35463;DHT22;21578;47.892;9.970;2022-08-20T23:52:20;15.60;96.60
35463;DHT22;21578;47.892;9.970;2022-08-20T23:57:08;15.50;96.60
